Bewolking Meer informatie Parkstad Weather Satellite


Neerslagradar Meer informatie Parkstad Rain Snow Radar


Onweersbuien Meer informatie Parkstad Lighntning


24/7 Weercamera Meer informatie Parkstad Weathercam


Natuurbrandrisico
CBI







METAR rapporten vliegvelden

   
EHAM - Amsterdam
Gewijzigd: 29-01-2023 14:25
Lichte (mot)regen, Bewolking  
Lichte (mot)regen, Bewolking  
   Wind: ZZW 24.1 km/h
Wind: ZZW 24.1 km/h
Temperatuur: 5°C
Voelt als: 1°C
Dauwpunt: 4°C
Vochtigheid: 93%
Barometer: 1023 hPa
Satelliet beelden: Bewolking
Zicht: 5 km
Bewolking: Licht bewolkt 213 m,
Grotendeels bewolkt 305 m,
Bewolking 366 m
EHAM 291325Z 21013KT 5000 -DZ FEW007 BKN010 OVC012 05/04 Q1023 BECMG 9999 NSW
EBAW - Antwerpen
Gewijzigd: 29-01-2023 14:20
Grotendeels bewolkt  
Grotendeels bewolkt  
   Wind: ZW 20.4 km/h
Wind: ZW 20.4 km/h
Temperatuur: 4°C
Voelt als: 0°C
Dauwpunt: -2°C
Vochtigheid: 65%
Barometer: 1026 hPa
Satelliet beelden: Grotendeels bewolkt
Zicht: meer dan 10 km
Bewolking: Grotendeels bewolkt 732 m
EBAW 291320Z 23011KT 9999 BKN024 04/M02 Q1026 NOSIG
EGLL - London
Gewijzigd: 29-01-2023 14:20
Bewolking  
Bewolking  
   Wind: WZW 16.7 km/h
Wind: WZW 16.7 km/h
Temperatuur: 8°C
Voelt als: 5°C
Dauwpunt: 6°C
Vochtigheid: 87%
Barometer: 1025 hPa
Satelliet beelden: Bewolking
Zicht: meer dan 10 km
Bewolking: Grotendeels bewolkt 335 m,
Bewolking 1097 m
EGLL 291320Z AUTO 24009KT 9999 BKN011 OVC036 08/06 Q1025
ELLX - Luxemburg
Gewijzigd: 29-01-2023 14:20
Nevel, Licht bewolkt  
Nevel, Licht bewolkt  
   Wind: Westen 13 km/h
Wind: Westen 13 km/h
Temperatuur: -1°C
Voelt als: -5°C
Dauwpunt: -5°C
Vochtigheid: 75%
Barometer: 1026 hPa
Satelliet beelden: Licht bewolkt
Zicht: 5 km
Bewolking: Licht bewolkt 457 m
ELLX 291320Z 26007KT 210V310 5000 HZ FEW015 M01/M05 Q1026 NOSIG
EDDM - München
Gewijzigd: 29-01-2023 14:20
Grotendeels bewolkt  
Grotendeels bewolkt  
   Wind: ZW 11.1 km/h
Wind: ZW 11.1 km/h
Temperatuur: 0°C
Voelt als: -3°C
Dauwpunt: -4°C
Vochtigheid: 75%
Barometer: 1025 hPa
Satelliet beelden: Grotendeels bewolkt
Zicht: meer dan 10 km
Bewolking: Grotendeels bewolkt 549 m
EDDM 291320Z AUTO 23006KT 200V270 9999 BKN018 M00/M04 Q1025 NOSIG
LFPO - Parijs
Gewijzigd: 29-01-2023 14:30
Grotendeels bewolkt  
Grotendeels bewolkt  
   Wind: NW 11.1 km/h
Wind: NW 11.1 km/h
Temperatuur: 4°C
Voelt als: 1°C
Dauwpunt: -2°C
Vochtigheid: 65%
Barometer: 1029 hPa
Satelliet beelden: Grotendeels bewolkt
Zicht: meer dan 10 km
Bewolking: Grotendeels bewolkt 853 m
LFPO 291330Z AUTO 31006KT 280V360 9999 BKN028 04/M02 Q1029 NOSIG
EDDL - Düsseldorf
Gewijzigd: 29-01-2023 14:20
Bewolking  
Bewolking  
   Wind: Zuiden 16.7 km/h
Wind: Zuiden 16.7 km/h
Temperatuur: 1°C
Voelt als: -3°C
Dauwpunt: -2°C
Vochtigheid: 81%
Barometer: 1026 hPa
Satelliet beelden: Bewolking
Zicht: meer dan 10 km
Bewolking: Bewolking 762 m
EDDL 291320Z AUTO 19009KT 9999 OVC025 01/M02 Q1026 NOSIG
EDDK - Köln/Bonn Duitsland
Gewijzigd: 29-01-2023 14:20
Bewolking  
Bewolking  
   Wind: Zuiden 9.3 km/h
Wind: Zuiden 9.3 km/h
Temperatuur: 1°C
Voelt als: -2°C
Dauwpunt: -3°C
Vochtigheid: 75%
Barometer: 1026 hPa
Satelliet beelden: Bewolking
Zicht: meer dan 10 km
Bewolking: Bewolking 793 m
EDDK 291320Z AUTO 17005KT 130V210 9999 OVC026 01/M03 Q1026 NOSIG
TNCA - Oranjestad Aruba
Gewijzigd: 29-01-2023 14:00
Gedeeltelijk bewolkt  
Gedeeltelijk bewolkt  
   Wind: Oosten 25.9 km/h
Wind: Oosten 25.9 km/h
Temperatuur: 25°C
Dauwpunt: 21°C
Vochtigheid: 79%
Barometer: 1015 hPa
Satelliet beelden: Gedeeltelijk bewolkt
Zicht: meer dan 10 km
Bewolking: Licht bewolkt 579 m,
Gedeeltelijk bewolkt 914 m
TNCA 291300Z 08014KT 9999 FEW019 SCT030 25/21 Q1015 RERA NOSIG
TNCC - Willemstad Curacao
Gewijzigd: 29-01-2023 14:00
Grotendeels bewolkt  
Grotendeels bewolkt  
   Wind: Oosten 20.4 km/h
Wind: Oosten 20.4 km/h
Temperatuur: 25°C
Dauwpunt: 22°C
Vochtigheid: 83%
Barometer: 1016 hPa
Satelliet beelden: Grotendeels bewolkt
Zicht: meer dan 10 km
Bewolking: Grotendeels bewolkt 549 m
TNCC 291300Z 08011KT 9999 BKN018 25/22 Q1016 NOSIG=
LEAL - La Nucia Spanje
Gewijzigd: 29-01-2023 14:30
Grotendeels bewolkt  
Grotendeels bewolkt  
   Wind: ONO 20.4 km/h<br />Gust to 20.4 km/h
Wind: ONO 20.4 km/h
Gust to 20.4 km/h
Temperatuur: 11°C
Dauwpunt: 3°C
Vochtigheid: 58%
Barometer: 1023 hPa
Satelliet beelden: Grotendeels bewolkt
Zicht: meer dan 10 km
Bewolking: Licht bewolkt 762 m,
Grotendeels bewolkt 1402 m
LEAL 291330Z 07011G21KT 040V100 9999 FEW025 BKN046 11/03 Q1023 NOSIG
 

Script ontwikkeld door  Saratoga-weather.org Aangepast voor de template door  Weerstation Leuven

U vindt ons ook hier:

Het Weer Aktueel

WOW Nederland KNMI

Vereniging voor Weerkunde en Klimatologie

UK Met Office Weather Observation Website (WOW)

WeatherCloud

Weather Underground

Awekas

MeteoMap.Cloud

HAMweather, WeatherForYou, PWS Weather

Citizen Weather Observer Program (CWOP)

Apparatuur in gebruik:

Hardwareleverancier
Weerhuisje

Weerstation
Vantage Pro2+ UV

Weercomputer's
alix3d2 & wl330n

Weerprogramma's
Smartbedded

Satelliet NOAA's
WRX137 & KX137

Satelliet Eumetsat
Ayecka SR1 & Triax

Bliksemdetectie
Boltek StormTracker

Webleverancier
F-Service

Weerhuisje

Vantage Pro2+ UV

alix3d2 & wl330n

Smartbedded

WRX137 & KX137

Ayecka SR1 & Triax

Boltek StormTracker

F-Service